sensor_id;sensor_type;location;lat;lon;timestamp;temperature;humidity
15328;DHT22;7764;51.430;6.840;2023-05-28T00:01:15;15.90;99.90
15328;DHT22;7764;51.430;6.840;2023-05-28T00:03:43;16.00;99.90
15328;DHT22;7764;51.430;6.840;2023-05-28T00:06:09;15.90;99.90
15328;DHT22;7764;51.430;6.840;2023-05-28T00:08:37;15.90;99.90
15328;DHT22;7764;51.430;6.840;2023-05-28T00:11:06;15.90;99.90
15328;DHT22;7764;51.430;6.840;2023-05-28T00:13:32;15.90;99.90
15328;DHT22;7764;51.430;6.840;2023-05-28T00:15:59;15.80;99.90
15328;DHT22;7764;51.430;6.840;2023-05-28T00:18:26;15.80;99.90
15328;DHT22;7764;51.430;6.840;2023-05-28T00:20:54;15.70;99.90
15328;DHT22;7764;51.430;6.840;2023-05-28T00:23:21;15.70;99.90
15328;DHT22;7764;51.430;6.840;2023-05-28T00:25:48;15.70;99.90
15328;DHT22;7764;51.430;6.840;2023-05-28T00:28:16;15.70;99.90
15328;DHT22;7764;51.430;6.840;2023-05-28T00:30:43;15.60;99.90
15328;DHT22;7764;51.430;6.840;2023-05-28T00:33:10;15.60;99.90
15328;DHT22;7764;51.430;6.840;2023-05-28T00:35:36;15.70;99.90
15328;DHT22;7764;51.430;6.840;2023-05-28T00:38:03;15.70;99.90
15328;DHT22;7764;51.430;6.840;2023-05-28T00:40:30;15.70;99.90
15328;DHT22;7764;51.430;6.840;2023-05-28T00:42:57;15.60;99.90
15328;DHT22;7764;51.430;6.840;2023-05-28T00:45:25;15.60;99.90
15328;DHT22;7764;51.430;6.840;2023-05-28T00:47:52;15.50;99.90
15328;DHT22;7764;51.430;6.840;2023-05-28T00:50:19;15.50;99.90
15328;DHT22;7764;51.430;6.840;2023-05-28T00:52:47;15.50;99.90
15328;DHT22;7764;51.430;6.840;2023-05-28T00:55:16;15.50;99.90
15328;DHT22;7764;51.430;6.840;2023-05-28T00:57:44;15.40;99.90
15328;DHT22;7764;51.430;6.840;2023-05-28T01:00:13;15.40;99.90
15328;DHT22;7764;51.430;6.840;2023-05-28T01:02:41;15.40;99.90
15328;DHT22;7764;51.430;6.840;2023-05-28T01:05:08;15.20;99.90
15328;DHT22;7764;51.430;6.840;2023-05-28T01:07:36;15.20;99.90
15328;DHT22;7764;51.430;6.840;2023-05-28T01:10:04;15.20;99.90
15328;DHT22;7764;51.430;6.840;2023-05-28T01:12:31;15.00;99.90
15328;DHT22;7764;51.430;6.840;2023-05-28T01:14:59;15.00;99.90
15328;DHT22;7764;51.430;6.840;2023-05-28T01:17:26;15.00;99.90
15328;DHT22;7764;51.430;6.840;2023-05-28T01:19:55;14.90;99.90
15328;DHT22;7764;51.430;6.840;2023-05-28T01:22:25;14.90;99.90
15328;DHT22;7764;51.430;6.840;2023-05-28T01:24:57;14.90;99.90
15328;DHT22;7764;51.430;6.840;2023-05-28T01:27:26;14.80;99.90
15328;DHT22;7764;51.430;6.840;2023-05-28T01:29:53;14.80;99.90
15328;DHT22;7764;51.430;6.840;2023-05-28T01:32:21;14.90;99.90
15328;DHT22;7764;51.430;6.840;2023-05-28T01:34:47;14.80;99.90
15328;DHT22;7764;51.430;6.840;2023-05-28T01:37:15;14.80;99.90
15328;DHT22;7764;51.430;6.840;2023-05-28T01:39:45;14.80;99.90
15328;DHT22;7764;51.430;6.840;2023-05-28T01:42:17;14.70;99.90
15328;DHT22;7764;51.430;6.840;2023-05-28T01:44:44;14.60;99.90
15328;DHT22;7764;51.430;6.840;2023-05-28T01:47:12;14.50;99.90
15328;DHT22;7764;51.430;6.840;2023-05-28T01:49:40;14.50;99.90
15328;DHT22;7764;51.430;6.840;2023-05-28T01:52:07;14.50;99.90
15328;DHT22;7764;51.430;6.840;2023-05-28T01:54:34;14.50;99.90
15328;DHT22;7764;51.430;6.840;2023-05-28T01:57:01;14.50;99.90
15328;DHT22;7764;51.430;6.840;2023-05-28T01:59:30;14.50;99.90
15328;DHT22;7764;51.430;6.840;2023-05-28T02:01:56;14.50;99.90
15328;DHT22;7764;51.430;6.840;2023-05-28T02:04:24;14.50;99.90
15328;DHT22;7764;51.430;6.840;2023-05-28T02:06:51;14.40;99.90
15328;DHT22;7764;51.430;6.840;2023-05-28T02:09:18;14.30;99.90
15328;DHT22;7764;51.430;6.840;2023-05-28T02:11:45;14.30;99.90
15328;DHT22;7764;51.430;6.840;2023-05-28T02:14:11;14.20;99.90
15328;DHT22;7764;51.430;6.840;2023-05-28T02:16:41;14.20;99.90
15328;DHT22;7764;51.430;6.840;2023-05-28T02:19:09;14.10;99.90
15328;DHT22;7764;51.430;6.840;2023-05-28T02:21:35;14.10;99.90
15328;DHT22;7764;51.430;6.840;2023-05-28T02:24:03;14.10;99.90
15328;DHT22;7764;51.430;6.840;2023-05-28T02:26:29;14.00;99.90
15328;DHT22;7764;51.430;6.840;2023-05-28T02:28:56;14.00;99.90
15328;DHT22;7764;51.430;6.840;2023-05-28T02:31:23;14.00;99.90
15328;DHT22;7764;51.430;6.840;2023-05-28T02:33:52;14.00;99.90
15328;DHT22;7764;51.430;6.840;2023-05-28T02:36:18;14.00;99.90
15328;DHT22;7764;51.430;6.840;2023-05-28T02:38:46;14.00;99.90
15328;DHT22;7764;51.430;6.840;2023-05-28T02:41:13;13.80;99.90
15328;DHT22;7764;51.430;6.840;2023-05-28T02:43:40;13.60;99.90
15328;DHT22;7764;51.430;6.840;2023-05-28T02:46:06;13.70;99.90
15328;DHT22;7764;51.430;6.840;2023-05-28T02:48:33;13.60;99.90
15328;DHT22;7764;51.430;6.840;2023-05-28T02:51:02;13.50;99.90
15328;DHT22;7764;51.430;6.840;2023-05-28T02:53:30;13.50;99.90
15328;DHT22;7764;51.430;6.840;2023-05-28T02:55:57;13.50;99.90
15328;DHT22;7764;51.430;6.840;2023-05-28T02:58:24;13.50;99.90
15328;DHT22;7764;51.430;6.840;2023-05-28T03:00:51;13.50;99.90
15328;DHT22;7764;51.430;6.840;2023-05-28T03:03:18;13.50;99.90
15328;DHT22;7764;51.430;6.840;2023-05-28T03:05:45;13.40;99.90
15328;DHT22;7764;51.430;6.840;2023-05-28T03:08:13;13.40;99.90
15328;DHT22;7764;51.430;6.840;2023-05-28T03:10:39;13.30;99.90
15328;DHT22;7764;51.430;6.840;2023-05-28T03:13:08;13.30;99.90
15328;DHT22;7764;51.430;6.840;2023-05-28T03:15:35;13.20;99.90
15328;DHT22;7764;51.430;6.840;2023-05-28T03:18:01;13.20;99.90
15328;DHT22;7764;51.430;6.840;2023-05-28T03:20:29;13.20;99.90
15328;DHT22;7764;51.430;6.840;2023-05-28T03:22:56;13.20;99.90
15328;DHT22;7764;51.430;6.840;2023-05-28T03:25:25;13.10;99.90
15328;DHT22;7764;51.430;6.840;2023-05-28T03:27:52;13.10;99.90
15328;DHT22;7764;51.430;6.840;2023-05-28T03:30:19;13.20;99.90
15328;DHT22;7764;51.430;6.840;2023-05-28T03:32:47;13.20;99.90
15328;DHT22;7764;51.430;6.840;2023-05-28T03:35:14;13.10;99.90
15328;DHT22;7764;51.430;6.840;2023-05-28T03:37:41;13.10;99.90
15328;DHT22;7764;51.430;6.840;2023-05-28T03:40:08;13.10;99.90
15328;DHT22;7764;51.430;6.840;2023-05-28T03:42:37;13.10;99.90
15328;DHT22;7764;51.430;6.840;2023-05-28T03:45:05;13.10;99.90
15328;DHT22;7764;51.430;6.840;2023-05-28T03:47:32;13.10;99.90
15328;DHT22;7764;51.430;6.840;2023-05-28T03:50:01;13.10;99.90
15328;DHT22;7764;51.430;6.840;2023-05-28T03:52:27;13.10;99.90
15328;DHT22;7764;51.430;6.840;2023-05-28T03:54:55;13.20;99.90
15328;DHT22;7764;51.430;6.840;2023-05-28T03:57:22;13.20;99.90
15328;DHT22;7764;51.430;6.840;2023-05-28T03:59:50;13.20;99.90
15328;DHT22;7764;51.430;6.840;2023-05-28T04:02:17;13.20;99.90
15328;DHT22;7764;51.430;6.840;2023-05-28T04:04:44;13.10;99.90
15328;DHT22;7764;51.430;6.840;2023-05-28T04:07:12;13.20;99.90
15328;DHT22;7764;51.430;6.840;2023-05-28T04:09:39;13.30;99.90
15328;DHT22;7764;51.430;6.840;2023-05-28T04:12:07;13.60;99.90
15328;DHT22;7764;51.430;6.840;2023-05-28T04:14:34;14.00;99.90
15328;DHT22;7764;51.430;6.840;2023-05-28T04:17:02;14.40;99.90
15328;DHT22;7764;51.430;6.840;2023-05-28T04:19:29;14.80;99.90
15328;DHT22;7764;51.430;6.840;2023-05-28T04:21:56;15.00;99.90
15328;DHT22;7764;51.430;6.840;2023-05-28T04:24:23;15.40;99.90
15328;DHT22;7764;51.430;6.840;2023-05-28T04:26:50;15.70;99.90
15328;DHT22;7764;51.430;6.840;2023-05-28T04:29:18;15.90;99.90
15328;DHT22;7764;51.430;6.840;2023-05-28T04:31:48;16.10;99.90
15328;DHT22;7764;51.430;6.840;2023-05-28T04:34:17;16.20;99.90
15328;DHT22;7764;51.430;6.840;2023-05-28T04:36:45;16.40;99.90
15328;DHT22;7764;51.430;6.840;2023-05-28T04:39:13;16.70;99.90
15328;DHT22;7764;51.430;6.840;2023-05-28T04:41:40;16.90;99.90
15328;DHT22;7764;51.430;6.840;2023-05-28T04:44:09;17.00;99.90
15328;DHT22;7764;51.430;6.840;2023-05-28T04:46:35;17.10;99.90
15328;DHT22;7764;51.430;6.840;2023-05-28T04:49:02;17.10;99.90
15328;DHT22;7764;51.430;6.840;2023-05-28T04:51:31;17.40;99.90
15328;DHT22;7764;51.430;6.840;2023-05-28T04:53:58;17.60;99.90
15328;DHT22;7764;51.430;6.840;2023-05-28T04:56:25;18.00;99.90
15328;DHT22;7764;51.430;6.840;2023-05-28T04:58:51;18.10;99.90
15328;DHT22;7764;51.430;6.840;2023-05-28T05:01:18;18.50;99.90
15328;DHT22;7764;51.430;6.840;2023-05-28T05:03:45;18.60;99.90
15328;DHT22;7764;51.430;6.840;2023-05-28T05:06:12;18.40;99.90
15328;DHT22;7764;51.430;6.840;2023-05-28T05:08:40;18.80;99.90
15328;DHT22;7764;51.430;6.840;2023-05-28T05:11:07;19.10;99.90
15328;DHT22;7764;51.430;6.840;2023-05-28T05:13:34;19.40;99.90
15328;DHT22;7764;51.430;6.840;2023-05-28T05:16:01;19.80;99.90
15328;DHT22;7764;51.430;6.840;2023-05-28T05:18:28;19.80;99.90
15328;DHT22;7764;51.430;6.840;2023-05-28T05:20:54;19.70;99.90
15328;DHT22;7764;51.430;6.840;2023-05-28T05:23:22;20.10;99.90
15328;DHT22;7764;51.430;6.840;2023-05-28T05:25:51;20.00;99.90
15328;DHT22;7764;51.430;6.840;2023-05-28T05:28:17;20.30;99.90
15328;DHT22;7764;51.430;6.840;2023-05-28T05:30:44;20.40;99.90
15328;DHT22;7764;51.430;6.840;2023-05-28T05:33:11;20.40;99.90
15328;DHT22;7764;51.430;6.840;2023-05-28T05:35:38;20.10;99.90
15328;DHT22;7764;51.430;6.840;2023-05-28T05:38:05;19.70;99.90
15328;DHT22;7764;51.430;6.840;2023-05-28T05:40:32;19.70;99.90
15328;DHT22;7764;51.430;6.840;2023-05-28T05:43:00;19.70;99.90
15328;DHT22;7764;51.430;6.840;2023-05-28T05:45:27;19.50;99.90
15328;DHT22;7764;51.430;6.840;2023-05-28T05:47:54;19.40;99.90
15328;DHT22;7764;51.430;6.840;2023-05-28T05:50:21;19.70;99.90
15328;DHT22;7764;51.430;6.840;2023-05-28T05:52:48;20.10;99.90
15328;DHT22;7764;51.430;6.840;2023-05-28T05:55:15;20.10;99.90
15328;DHT22;7764;51.430;6.840;2023-05-28T05:57:42;20.20;99.90
15328;DHT22;7764;51.430;6.840;2023-05-28T06:00:13;20.20;99.90
15328;DHT22;7764;51.430;6.840;2023-05-28T06:02:40;20.30;99.90
15328;DHT22;7764;51.430;6.840;2023-05-28T06:05:07;20.50;99.90
15328;DHT22;7764;51.430;6.840;2023-05-28T06:07:34;21.00;99.90
15328;DHT22;7764;51.430;6.840;2023-05-28T06:10:01;21.50;99.90
15328;DHT22;7764;51.430;6.840;2023-05-28T06:12:28;21.40;99.90
15328;DHT22;7764;51.430;6.840;2023-05-28T06:14:55;21.30;99.90
15328;DHT22;7764;51.430;6.840;2023-05-28T06:17:23;21.20;99.90
15328;DHT22;7764;51.430;6.840;2023-05-28T06:19:50;21.40;99.90
15328;DHT22;7764;51.430;6.840;2023-05-28T06:22:17;21.80;99.90
15328;DHT22;7764;51.430;6.840;2023-05-28T06:24:44;21.80;99.90
15328;DHT22;7764;51.430;6.840;2023-05-28T06:27:12;22.00;99.90
15328;DHT22;7764;51.430;6.840;2023-05-28T06:29:39;21.90;99.90
15328;DHT22;7764;51.430;6.840;2023-05-28T06:32:06;21.60;99.90
15328;DHT22;7764;51.430;6.840;2023-05-28T06:34:35;21.90;99.70
15328;DHT22;7764;51.430;6.840;2023-05-28T06:37:02;22.10;99.80
15328;DHT22;7764;51.430;6.840;2023-05-28T06:39:28;22.20;99.30
15328;DHT22;7764;51.430;6.840;2023-05-28T06:41:55;21.90;98.90
15328;DHT22;7764;51.430;6.840;2023-05-28T06:44:22;21.60;99.90
15328;DHT22;7764;51.430;6.840;2023-05-28T06:46:49;21.90;99.90
15328;DHT22;7764;51.430;6.840;2023-05-28T06:49:16;21.90;99.60
15328;DHT22;7764;51.430;6.840;2023-05-28T06:51:44;22.50;96.60
15328;DHT22;7764;51.430;6.840;2023-05-28T06:54:11;22.50;94.50
15328;DHT22;7764;51.430;6.840;2023-05-28T06:56:38;22.30;93.80
15328;DHT22;7764;51.430;6.840;2023-05-28T06:59:05;22.40;94.10
15328;DHT22;7764;51.430;6.840;2023-05-28T07:01:32;22.30;94.00
15328;DHT22;7764;51.430;6.840;2023-05-28T07:03:58;22.50;93.50
15328;DHT22;7764;51.430;6.840;2023-05-28T07:06:25;22.50;92.40
15328;DHT22;7764;51.430;6.840;2023-05-28T07:08:53;22.90;92.10
15328;DHT22;7764;51.430;6.840;2023-05-28T07:11:20;23.10;90.70
15328;DHT22;7764;51.430;6.840;2023-05-28T07:13:47;23.30;89.40
15328;DHT22;7764;51.430;6.840;2023-05-28T07:16:14;23.00;88.90
15328;DHT22;7764;51.430;6.840;2023-05-28T07:18:41;22.80;88.30
15328;DHT22;7764;51.430;6.840;2023-05-28T07:21:08;22.80;89.30
15328;DHT22;7764;51.430;6.840;2023-05-28T07:23:34;22.70;90.10
15328;DHT22;7764;51.430;6.840;2023-05-28T07:26:03;22.90;90.30
15328;DHT22;7764;51.430;6.840;2023-05-28T07:28:30;22.80;90.00
15328;DHT22;7764;51.430;6.840;2023-05-28T07:30:57;23.00;89.20
15328;DHT22;7764;51.430;6.840;2023-05-28T07:33:24;23.20;88.60
15328;DHT22;7764;51.430;6.840;2023-05-28T07:35:50;23.70;85.00
15328;DHT22;7764;51.430;6.840;2023-05-28T07:38:17;23.20;84.70
15328;DHT22;7764;51.430;6.840;2023-05-28T07:40:44;23.40;85.60
15328;DHT22;7764;51.430;6.840;2023-05-28T07:43:12;23.60;85.60
15328;DHT22;7764;51.430;6.840;2023-05-28T07:45:39;23.60;85.20
15328;DHT22;7764;51.430;6.840;2023-05-28T07:48:06;23.40;84.00
15328;DHT22;7764;51.430;6.840;2023-05-28T07:50:33;23.30;84.30
15328;DHT22;7764;51.430;6.840;2023-05-28T07:53:01;22.80;87.60
15328;DHT22;7764;51.430;6.840;2023-05-28T07:55:27;22.60;89.00
15328;DHT22;7764;51.430;6.840;2023-05-28T07:57:54;22.60;89.40
15328;DHT22;7764;51.430;6.840;2023-05-28T08:00:25;22.80;89.50
15328;DHT22;7764;51.430;6.840;2023-05-28T08:02:52;23.10;87.80
15328;DHT22;7764;51.430;6.840;2023-05-28T08:05:20;23.20;88.30
15328;DHT22;7764;51.430;6.840;2023-05-28T08:07:46;23.30;86.70
15328;DHT22;7764;51.430;6.840;2023-05-28T08:10:13;23.20;85.40
15328;DHT22;7764;51.430;6.840;2023-05-28T08:12:40;22.80;85.80
15328;DHT22;7764;51.430;6.840;2023-05-28T08:15:07;22.90;83.70
15328;DHT22;7764;51.430;6.840;2023-05-28T08:17:36;22.90;83.50
15328;DHT22;7764;51.430;6.840;2023-05-28T08:20:04;23.00;83.90
15328;DHT22;7764;51.430;6.840;2023-05-28T08:22:32;23.30;84.50
15328;DHT22;7764;51.430;6.840;2023-05-28T08:24:59;23.20;82.50
15328;DHT22;7764;51.430;6.840;2023-05-28T08:27:26;23.50;83.10
15328;DHT22;7764;51.430;6.840;2023-05-28T08:29:53;23.60;81.30
15328;DHT22;7764;51.430;6.840;2023-05-28T08:32:20;23.70;82.20
15328;DHT22;7764;51.430;6.840;2023-05-28T08:34:49;23.70;81.40
15328;DHT22;7764;51.430;6.840;2023-05-28T08:37:16;23.50;78.60
15328;DHT22;7764;51.430;6.840;2023-05-28T08:39:43;23.80;79.50
15328;DHT22;7764;51.430;6.840;2023-05-28T08:42:10;23.60;79.80
15328;DHT22;7764;51.430;6.840;2023-05-28T08:44:37;23.60;79.90
15328;DHT22;7764;51.430;6.840;2023-05-28T08:47:04;23.60;81.60
15328;DHT22;7764;51.430;6.840;2023-05-28T08:49:32;23.90;79.30
15328;DHT22;7764;51.430;6.840;2023-05-28T08:52:05;24.10;78.30
15328;DHT22;7764;51.430;6.840;2023-05-28T08:54:34;24.30;76.60
15328;DHT22;7764;51.430;6.840;2023-05-28T08:57:01;24.50;76.90
15328;DHT22;7764;51.430;6.840;2023-05-28T08:59:29;24.60;76.30
15328;DHT22;7764;51.430;6.840;2023-05-28T09:01:56;24.20;75.90
15328;DHT22;7764;51.430;6.840;2023-05-28T09:04:23;24.30;77.50
15328;DHT22;7764;51.430;6.840;2023-05-28T09:06:50;24.40;76.60
15328;DHT22;7764;51.430;6.840;2023-05-28T09:09:20;24.50;76.00
15328;DHT22;7764;51.430;6.840;2023-05-28T09:11:47;24.30;74.40
15328;DHT22;7764;51.430;6.840;2023-05-28T09:14:15;23.90;75.20
15328;DHT22;7764;51.430;6.840;2023-05-28T09:16:43;23.80;75.20
15328;DHT22;7764;51.430;6.840;2023-05-28T09:19:14;23.90;76.00
15328;DHT22;7764;51.430;6.840;2023-05-28T09:21:51;23.90;75.20
15328;DHT22;7764;51.430;6.840;2023-05-28T09:24:20;23.80;76.10
15328;DHT22;7764;51.430;6.840;2023-05-28T09:26:48;23.90;75.70
15328;DHT22;7764;51.430;6.840;2023-05-28T09:29:16;23.80;75.80
15328;DHT22;7764;51.430;6.840;2023-05-28T09:31:42;24.10;75.80
15328;DHT22;7764;51.430;6.840;2023-05-28T09:34:10;24.20;75.00
15328;DHT22;7764;51.430;6.840;2023-05-28T09:36:37;23.80;74.80
15328;DHT22;7764;51.430;6.840;2023-05-28T09:39:06;23.60;75.10
15328;DHT22;7764;51.430;6.840;2023-05-28T09:41:35;23.20;76.40
15328;DHT22;7764;51.430;6.840;2023-05-28T09:44:06;23.40;76.80
15328;DHT22;7764;51.430;6.840;2023-05-28T09:46:34;23.50;75.40
15328;DHT22;7764;51.430;6.840;2023-05-28T09:49:02;23.30;77.30
15328;DHT22;7764;51.430;6.840;2023-05-28T09:51:30;23.80;75.90
15328;DHT22;7764;51.430;6.840;2023-05-28T09:53:58;23.70;76.10
15328;DHT22;7764;51.430;6.840;2023-05-28T09:56:27;23.70;76.10
15328;DHT22;7764;51.430;6.840;2023-05-28T09:58:59;23.50;75.40
15328;DHT22;7764;51.430;6.840;2023-05-28T10:01:30;23.60;76.60
15328;DHT22;7764;51.430;6.840;2023-05-28T10:04:02;23.70;75.80
15328;DHT22;7764;51.430;6.840;2023-05-28T10:06:32;23.50;74.50
15328;DHT22;7764;51.430;6.840;2023-05-28T10:09:00;23.50;74.10
15328;DHT22;7764;51.430;6.840;2023-05-28T10:11:30;23.40;73.50
15328;DHT22;7764;51.430;6.840;2023-05-28T10:14:02;23.50;71.90
15328;DHT22;7764;51.430;6.840;2023-05-28T10:16:30;23.50;72.10
15328;DHT22;7764;51.430;6.840;2023-05-28T10:18:57;23.70;69.90
15328;DHT22;7764;51.430;6.840;2023-05-28T10:21:24;23.60;70.70
15328;DHT22;7764;51.430;6.840;2023-05-28T10:23:52;24.00;70.20
15328;DHT22;7764;51.430;6.840;2023-05-28T10:26:19;24.00;68.30
15328;DHT22;7764;51.430;6.840;2023-05-28T10:28:53;24.20;67.10
15328;DHT22;7764;51.430;6.840;2023-05-28T10:31:22;24.40;65.20
15328;DHT22;7764;51.430;6.840;2023-05-28T10:33:50;24.30;65.40
15328;DHT22;7764;51.430;6.840;2023-05-28T10:36:17;24.30;65.90
15328;DHT22;7764;51.430;6.840;2023-05-28T10:38:45;24.40;63.80
15328;DHT22;7764;51.430;6.840;2023-05-28T10:41:17;24.40;65.20
15328;DHT22;7764;51.430;6.840;2023-05-28T10:43:45;24.50;67.40
15328;DHT22;7764;51.430;6.840;2023-05-28T10:46:15;24.60;68.50
15328;DHT22;7764;51.430;6.840;2023-05-28T10:49:06;24.30;66.50
15328;DHT22;7764;51.430;6.840;2023-05-28T10:51:51;24.50;66.50
15328;DHT22;7764;51.430;6.840;2023-05-28T10:54:23;24.40;65.00
15328;DHT22;7764;51.430;6.840;2023-05-28T10:57:09;24.50;65.70
15328;DHT22;7764;51.430;6.840;2023-05-28T10:59:47;24.30;64.20
15328;DHT22;7764;51.430;6.840;2023-05-28T11:02:17;24.10;64.20
15328;DHT22;7764;51.430;6.840;2023-05-28T11:04:45;24.20;65.10
15328;DHT22;7764;51.430;6.840;2023-05-28T11:07:13;24.40;65.90
15328;DHT22;7764;51.430;6.840;2023-05-28T11:09:40;24.50;66.20
15328;DHT22;7764;51.430;6.840;2023-05-28T11:12:07;24.80;66.10
15328;DHT22;7764;51.430;6.840;2023-05-28T11:14:35;24.80;65.70
15328;DHT22;7764;51.430;6.840;2023-05-28T11:17:07;24.80;65.20
15328;DHT22;7764;51.430;6.840;2023-05-28T11:19:42;24.60;64.90
15328;DHT22;7764;51.430;6.840;2023-05-28T11:22:10;24.60;65.30
15328;DHT22;7764;51.430;6.840;2023-05-28T11:24:50;24.60;65.80
15328;DHT22;7764;51.430;6.840;2023-05-28T11:27:18;24.70;65.40
15328;DHT22;7764;51.430;6.840;2023-05-28T11:29:45;24.70;64.30
15328;DHT22;7764;51.430;6.840;2023-05-28T11:32:12;24.70;64.00
15328;DHT22;7764;51.430;6.840;2023-05-28T11:34:39;24.50;65.00
15328;DHT22;7764;51.430;6.840;2023-05-28T11:37:05;24.60;65.80
15328;DHT22;7764;51.430;6.840;2023-05-28T11:39:34;24.30;65.40
15328;DHT22;7764;51.430;6.840;2023-05-28T11:42:01;24.30;66.30
15328;DHT22;7764;51.430;6.840;2023-05-28T11:44:28;24.70;66.20
15328;DHT22;7764;51.430;6.840;2023-05-28T11:46:55;24.70;65.20
15328;DHT22;7764;51.430;6.840;2023-05-28T11:49:22;24.40;65.80
15328;DHT22;7764;51.430;6.840;2023-05-28T11:51:50;24.30;66.10
15328;DHT22;7764;51.430;6.840;2023-05-28T11:54:18;24.30;65.40
15328;DHT22;7764;51.430;6.840;2023-05-28T11:56:49;24.50;64.50
15328;DHT22;7764;51.430;6.840;2023-05-28T11:59:16;24.50;65.20
15328;DHT22;7764;51.430;6.840;2023-05-28T12:01:44;24.30;66.40
15328;DHT22;7764;51.430;6.840;2023-05-28T12:04:11;24.60;66.80
15328;DHT22;7764;51.430;6.840;2023-05-28T12:06:49;24.40;65.80
15328;DHT22;7764;51.430;6.840;2023-05-28T12:09:17;24.60;65.30
15328;DHT22;7764;51.430;6.840;2023-05-28T12:11:44;24.50;64.50
15328;DHT22;7764;51.430;6.840;2023-05-28T12:14:12;24.40;66.10
15328;DHT22;7764;51.430;6.840;2023-05-28T12:16:44;24.50;64.70
15328;DHT22;7764;51.430;6.840;2023-05-28T12:19:14;24.50;62.90
15328;DHT22;7764;51.430;6.840;2023-05-28T12:21:43;24.50;63.50
15328;DHT22;7764;51.430;6.840;2023-05-28T12:24:11;24.50;64.40
15328;DHT22;7764;51.430;6.840;2023-05-28T12:26:39;24.60;65.60
15328;DHT22;7764;51.430;6.840;2023-05-28T12:29:05;24.60;65.30
15328;DHT22;7764;51.430;6.840;2023-05-28T12:31:34;24.50;66.80
15328;DHT22;7764;51.430;6.840;2023-05-28T12:34:01;24.40;66.70
15328;DHT22;7764;51.430;6.840;2023-05-28T12:36:28;24.30;68.10
15328;DHT22;7764;51.430;6.840;2023-05-28T12:38:55;24.20;69.10
15328;DHT22;7764;51.430;6.840;2023-05-28T12:41:22;24.10;69.40
15328;DHT22;7764;51.430;6.840;2023-05-28T12:43:49;24.20;68.40
15328;DHT22;7764;51.430;6.840;2023-05-28T12:46:16;24.10;68.10
15328;DHT22;7764;51.430;6.840;2023-05-28T12:48:44;24.30;68.00
15328;DHT22;7764;51.430;6.840;2023-05-28T12:51:11;24.20;68.00
15328;DHT22;7764;51.430;6.840;2023-05-28T12:53:38;24.10;69.00
15328;DHT22;7764;51.430;6.840;2023-05-28T12:56:05;24.30;69.30
15328;DHT22;7764;51.430;6.840;2023-05-28T12:58:32;24.40;68.60
15328;DHT22;7764;51.430;6.840;2023-05-28T13:00:58;24.40;68.50
15328;DHT22;7764;51.430;6.840;2023-05-28T13:03:25;24.50;67.80
15328;DHT22;7764;51.430;6.840;2023-05-28T13:05:53;24.50;68.80
15328;DHT22;7764;51.430;6.840;2023-05-28T13:08:20;24.60;68.40
15328;DHT22;7764;51.430;6.840;2023-05-28T13:10:47;24.60;68.40
15328;DHT22;7764;51.430;6.840;2023-05-28T13:13:14;24.60;68.60
15328;DHT22;7764;51.430;6.840;2023-05-28T13:15:41;24.50;68.50
15328;DHT22;7764;51.430;6.840;2023-05-28T13:18:07;24.40;69.00
15328;DHT22;7764;51.430;6.840;2023-05-28T13:20:34;24.30;68.60
15328;DHT22;7764;51.430;6.840;2023-05-28T13:23:02;24.30;69.30
15328;DHT22;7764;51.430;6.840;2023-05-28T13:25:29;24.50;69.30
15328;DHT22;7764;51.430;6.840;2023-05-28T13:27:57;24.50;69.00
15328;DHT22;7764;51.430;6.840;2023-05-28T13:30:23;24.50;69.10
15328;DHT22;7764;51.430;6.840;2023-05-28T13:32:50;24.40;68.50
15328;DHT22;7764;51.430;6.840;2023-05-28T13:35:17;24.50;68.00
15328;DHT22;7764;51.430;6.840;2023-05-28T13:37:45;24.60;67.30
15328;DHT22;7764;51.430;6.840;2023-05-28T13:40:14;24.50;66.20
15328;DHT22;7764;51.430;6.840;2023-05-28T13:42:41;24.50;66.10
15328;DHT22;7764;51.430;6.840;2023-05-28T13:45:09;24.50;66.60
15328;DHT22;7764;51.430;6.840;2023-05-28T13:47:37;24.50;66.80
15328;DHT22;7764;51.430;6.840;2023-05-28T13:50:04;24.50;67.00
15328;DHT22;7764;51.430;6.840;2023-05-28T13:52:31;24.50;67.40
15328;DHT22;7764;51.430;6.840;2023-05-28T13:54:58;24.60;67.50
15328;DHT22;7764;51.430;6.840;2023-05-28T13:57:26;24.50;67.50
15328;DHT22;7764;51.430;6.840;2023-05-28T13:59:53;24.50;68.40
15328;DHT22;7764;51.430;6.840;2023-05-28T14:02:20;24.70;68.50
15328;DHT22;7764;51.430;6.840;2023-05-28T14:04:47;24.60;68.10
15328;DHT22;7764;51.430;6.840;2023-05-28T14:07:14;24.70;68.40
15328;DHT22;7764;51.430;6.840;2023-05-28T14:09:41;24.50;66.60
15328;DHT22;7764;51.430;6.840;2023-05-28T14:12:08;24.60;66.40
15328;DHT22;7764;51.430;6.840;2023-05-28T14:14:36;24.60;64.60
15328;DHT22;7764;51.430;6.840;2023-05-28T14:17:03;24.60;65.40
15328;DHT22;7764;51.430;6.840;2023-05-28T14:19:30;24.80;66.00
15328;DHT22;7764;51.430;6.840;2023-05-28T14:21:57;24.70;65.70
15328;DHT22;7764;51.430;6.840;2023-05-28T14:24:24;24.70;67.00
15328;DHT22;7764;51.430;6.840;2023-05-28T14:26:50;24.90;67.40
15328;DHT22;7764;51.430;6.840;2023-05-28T14:29:17;24.80;67.60
15328;DHT22;7764;51.430;6.840;2023-05-28T14:31:45;24.90;68.30
15328;DHT22;7764;51.430;6.840;2023-05-28T14:34:13;25.10;70.20
15328;DHT22;7764;51.430;6.840;2023-05-28T14:36:40;24.90;68.90
15328;DHT22;7764;51.430;6.840;2023-05-28T14:39:07;25.00;70.10
15328;DHT22;7764;51.430;6.840;2023-05-28T14:41:34;25.00;69.20
15328;DHT22;7764;51.430;6.840;2023-05-28T14:44:01;25.00;68.50
15328;DHT22;7764;51.430;6.840;2023-05-28T14:46:28;25.10;69.30
15328;DHT22;7764;51.430;6.840;2023-05-28T14:48:56;25.00;68.50
15328;DHT22;7764;51.430;6.840;2023-05-28T14:51:23;25.00;68.60
15328;DHT22;7764;51.430;6.840;2023-05-28T14:53:49;25.10;68.40
15328;DHT22;7764;51.430;6.840;2023-05-28T14:56:16;25.00;68.40
15328;DHT22;7764;51.430;6.840;2023-05-28T14:58:43;25.00;68.50
15328;DHT22;7764;51.430;6.840;2023-05-28T15:01:10;25.00;67.70
15328;DHT22;7764;51.430;6.840;2023-05-28T15:03:37;25.00;68.30
15328;DHT22;7764;51.430;6.840;2023-05-28T15:06:05;24.90;67.30
15328;DHT22;7764;51.430;6.840;2023-05-28T15:08:32;24.80;66.70
15328;DHT22;7764;51.430;6.840;2023-05-28T15:10:59;24.90;66.80
15328;DHT22;7764;51.430;6.840;2023-05-28T15:13:26;24.80;66.90
15328;DHT22;7764;51.430;6.840;2023-05-28T15:15:53;24.80;66.60
15328;DHT22;7764;51.430;6.840;2023-05-28T15:18:20;24.80;68.00
15328;DHT22;7764;51.430;6.840;2023-05-28T15:20:47;24.70;69.30
15328;DHT22;7764;51.430;6.840;2023-05-28T15:23:16;24.60;69.20
15328;DHT22;7764;51.430;6.840;2023-05-28T15:25:43;24.70;70.70
15328;DHT22;7764;51.430;6.840;2023-05-28T15:28:10;24.50;68.70
15328;DHT22;7764;51.430;6.840;2023-05-28T15:30:37;24.40;68.60
15328;DHT22;7764;51.430;6.840;2023-05-28T15:33:04;24.50;68.70
15328;DHT22;7764;51.430;6.840;2023-05-28T15:35:32;24.60;69.80
15328;DHT22;7764;51.430;6.840;2023-05-28T15:37:59;24.60;72.40
15328;DHT22;7764;51.430;6.840;2023-05-28T15:40:28;24.60;71.80
15328;DHT22;7764;51.430;6.840;2023-05-28T15:42:58;24.60;72.40
15328;DHT22;7764;51.430;6.840;2023-05-28T15:45:29;24.70;71.10
15328;DHT22;7764;51.430;6.840;2023-05-28T15:47:56;24.70;70.90